Aviation Digital Data Service (ADDS)

Output produced by METARs form (0515 UTC 16 February 2019)
found at http://www.aviationweather.gov/metar/data/
 
Forecast for: VTSB (SURAT THANI , TH)
Text: TAF VTSB 152300Z 1600/1624 32003KT 9999 FEW020
Forecast period: 0000 to 0300 UTC 16 February 2019
Forecast type: FROM: standard forecast or significant change
Winds: from the NW (320 degrees) at 3 MPH (3 knots; 1.5 m/s)
Visibility: 6 or more miles 10+ km)
Ceiling: at least 12,000 feet AGL
Clouds: few clouds at 2000 feet AGL
Weather: no significant weather forecast for this period
Text: BECMG 1603/1605 04015KT
Forecast period: 0300 to 1400 UTC 16 February 2019
Forecast type: BECOMING: Conditions expected to become as follows by 0500 UTC 16 February 2019
Winds: from the NE (40 degrees) at 17 MPH (15 knots; 7.7 m/s)
Visibility: 6 or more miles 10+ km)
Ceiling: at least 12,000 feet AGL
Clouds: few clouds at 2000 feet AGL
Weather: no significant weather forecast for this period
Text: BECMG 1614/1616 04005KT
Forecast period: 1400 UTC 16 February 2019 to 0000 UTC 17 February 2019
Forecast type: BECOMING: Conditions expected to become as follows by 1600 UTC 16 February 2019
Winds: from the NE (40 degrees) at 6 MPH (5 knots; 2.6 m/s)
Visibility: 6 or more miles 10+ km)
Ceiling: at least 12,000 feet AGL
Clouds: few clouds at 2000 feet AGL
Weather: no significant weather forecast for this period